sensor_id;sensor_type;location;lat;lon;timestamp;temperature;humidity
24802;DHT22;12898;50.520;12.152;2022-07-25T00:00:06;14.80;99.90
24802;DHT22;12898;50.520;12.152;2022-07-25T00:02:36;14.70;99.90
24802;DHT22;12898;50.520;12.152;2022-07-25T00:05:03;14.70;99.90
24802;DHT22;12898;50.520;12.152;2022-07-25T00:07:29;14.70;99.90
24802;DHT22;12898;50.520;12.152;2022-07-25T00:09:54;14.70;99.90
24802;DHT22;12898;50.520;12.152;2022-07-25T00:12:20;14.70;99.90
24802;DHT22;12898;50.520;12.152;2022-07-25T00:14:47;14.70;99.90
24802;DHT22;12898;50.520;12.152;2022-07-25T00:17:13;14.70;99.90
24802;DHT22;12898;50.520;12.152;2022-07-25T00:19:39;14.60;99.90
24802;DHT22;12898;50.520;12.152;2022-07-25T00:22:05;14.60;99.90
24802;DHT22;12898;50.520;12.152;2022-07-25T00:24:31;14.60;99.90
24802;DHT22;12898;50.520;12.152;2022-07-25T00:26:57;14.50;99.90
24802;DHT22;12898;50.520;12.152;2022-07-25T00:29:22;14.50;99.90
24802;DHT22;12898;50.520;12.152;2022-07-25T00:31:48;14.50;99.90
24802;DHT22;12898;50.520;12.152;2022-07-25T00:34:14;14.50;99.90
24802;DHT22;12898;50.520;12.152;2022-07-25T00:36:40;14.50;99.90
24802;DHT22;12898;50.520;12.152;2022-07-25T00:39:06;14.40;99.90
24802;DHT22;12898;50.520;12.152;2022-07-25T00:41:31;14.40;99.90
24802;DHT22;12898;50.520;12.152;2022-07-25T00:43:57;14.40;99.90
24802;DHT22;12898;50.520;12.152;2022-07-25T00:46:23;14.40;99.90
24802;DHT22;12898;50.520;12.152;2022-07-25T00:48:48;14.40;99.90
24802;DHT22;12898;50.520;12.152;2022-07-25T00:51:15;14.40;99.90
24802;DHT22;12898;50.520;12.152;2022-07-25T00:53:41;14.40;99.90
24802;DHT22;12898;50.520;12.152;2022-07-25T00:56:07;14.40;99.90
24802;DHT22;12898;50.520;12.152;2022-07-25T00:58:33;14.30;99.90
24802;DHT22;12898;50.520;12.152;2022-07-25T01:01:00;14.40;99.90
24802;DHT22;12898;50.520;12.152;2022-07-25T01:03:26;14.30;99.90
24802;DHT22;12898;50.520;12.152;2022-07-25T01:05:52;14.30;99.90
24802;DHT22;12898;50.520;12.152;2022-07-25T01:08:19;14.30;99.90
24802;DHT22;12898;50.520;12.152;2022-07-25T01:10:46;14.30;99.90
24802;DHT22;12898;50.520;12.152;2022-07-25T01:13:12;14.30;99.90
24802;DHT22;12898;50.520;12.152;2022-07-25T01:15:38;14.20;99.90
24802;DHT22;12898;50.520;12.152;2022-07-25T01:18:04;14.20;99.90
24802;DHT22;12898;50.520;12.152;2022-07-25T01:20:32;14.20;99.90
24802;DHT22;12898;50.520;12.152;2022-07-25T01:22:59;14.10;99.90
24802;DHT22;12898;50.520;12.152;2022-07-25T01:25:26;14.10;99.90
24802;DHT22;12898;50.520;12.152;2022-07-25T01:27:52;14.10;99.90
24802;DHT22;12898;50.520;12.152;2022-07-25T01:30:19;14.10;99.90
24802;DHT22;12898;50.520;12.152;2022-07-25T01:32:47;14.10;99.90
24802;DHT22;12898;50.520;12.152;2022-07-25T01:35:13;14.10;99.90
24802;DHT22;12898;50.520;12.152;2022-07-25T01:37:40;14.10;99.90
24802;DHT22;12898;50.520;12.152;2022-07-25T01:40:06;14.00;99.90
24802;DHT22;12898;50.520;12.152;2022-07-25T01:42:32;14.00;99.90
24802;DHT22;12898;50.520;12.152;2022-07-25T01:44:58;14.00;99.90
24802;DHT22;12898;50.520;12.152;2022-07-25T01:47:24;14.00;99.90
24802;DHT22;12898;50.520;12.152;2022-07-25T01:49:51;14.00;99.90
24802;DHT22;12898;50.520;12.152;2022-07-25T01:52:17;14.00;99.90
24802;DHT22;12898;50.520;12.152;2022-07-25T01:54:42;14.00;99.90
24802;DHT22;12898;50.520;12.152;2022-07-25T01:57:09;14.00;99.90
24802;DHT22;12898;50.520;12.152;2022-07-25T01:59:39;14.00;99.90
24802;DHT22;12898;50.520;12.152;2022-07-25T02:02:06;14.00;99.90
24802;DHT22;12898;50.520;12.152;2022-07-25T02:04:32;14.00;99.90
24802;DHT22;12898;50.520;12.152;2022-07-25T02:06:58;14.00;99.90
24802;DHT22;12898;50.520;12.152;2022-07-25T02:09:24;14.00;99.90
24802;DHT22;12898;50.520;12.152;2022-07-25T02:11:50;14.00;99.90
24802;DHT22;12898;50.520;12.152;2022-07-25T02:14:15;14.00;99.90
24802;DHT22;12898;50.520;12.152;2022-07-25T02:16:41;14.00;99.90
24802;DHT22;12898;50.520;12.152;2022-07-25T02:19:07;14.00;99.90
24802;DHT22;12898;50.520;12.152;2022-07-25T02:21:33;13.90;99.90
24802;DHT22;12898;50.520;12.152;2022-07-25T02:23:58;14.00;99.90
24802;DHT22;12898;50.520;12.152;2022-07-25T02:26:24;13.90;99.90
24802;DHT22;12898;50.520;12.152;2022-07-25T02:28:51;13.90;99.90
24802;DHT22;12898;50.520;12.152;2022-07-25T02:31:16;14.00;99.90
24802;DHT22;12898;50.520;12.152;2022-07-25T02:33:42;13.90;99.90
24802;DHT22;12898;50.520;12.152;2022-07-25T02:36:09;13.90;99.90
24802;DHT22;12898;50.520;12.152;2022-07-25T02:38:35;14.00;99.90
24802;DHT22;12898;50.520;12.152;2022-07-25T02:41:00;14.00;99.90
24802;DHT22;12898;50.520;12.152;2022-07-25T02:43:26;14.00;99.90
24802;DHT22;12898;50.520;12.152;2022-07-25T02:45:52;14.00;99.90
24802;DHT22;12898;50.520;12.152;2022-07-25T02:48:18;14.00;99.90
24802;DHT22;12898;50.520;12.152;2022-07-25T02:50:44;13.90;99.90
24802;DHT22;12898;50.520;12.152;2022-07-25T02:53:09;13.90;99.90
24802;DHT22;12898;50.520;12.152;2022-07-25T02:55:35;13.90;99.90
24802;DHT22;12898;50.520;12.152;2022-07-25T02:58:01;13.90;99.90
24802;DHT22;12898;50.520;12.152;2022-07-25T03:00:26;13.90;99.90
24802;DHT22;12898;50.520;12.152;2022-07-25T03:02:52;13.80;99.90
24802;DHT22;12898;50.520;12.152;2022-07-25T03:05:18;13.80;99.90
24802;DHT22;12898;50.520;12.152;2022-07-25T03:07:44;13.80;99.90
24802;DHT22;12898;50.520;12.152;2022-07-25T03:10:12;13.80;99.90
24802;DHT22;12898;50.520;12.152;2022-07-25T03:12:39;13.80;99.90
24802;DHT22;12898;50.520;12.152;2022-07-25T03:15:06;13.80;99.90
24802;DHT22;12898;50.520;12.152;2022-07-25T03:17:32;13.70;99.90
24802;DHT22;12898;50.520;12.152;2022-07-25T03:19:58;13.70;99.90
24802;DHT22;12898;50.520;12.152;2022-07-25T03:22:24;13.70;99.90
24802;DHT22;12898;50.520;12.152;2022-07-25T03:24:51;13.70;99.90
24802;DHT22;12898;50.520;12.152;2022-07-25T03:27:18;13.70;99.90
24802;DHT22;12898;50.520;12.152;2022-07-25T03:29:44;13.70;99.90
24802;DHT22;12898;50.520;12.152;2022-07-25T03:32:10;13.60;99.90
24802;DHT22;12898;50.520;12.152;2022-07-25T03:34:36;13.60;99.90
24802;DHT22;12898;50.520;12.152;2022-07-25T03:37:02;13.60;99.90
24802;DHT22;12898;50.520;12.152;2022-07-25T03:39:28;13.60;99.90
24802;DHT22;12898;50.520;12.152;2022-07-25T03:41:54;13.60;99.90
24802;DHT22;12898;50.520;12.152;2022-07-25T03:44:21;13.60;99.90
24802;DHT22;12898;50.520;12.152;2022-07-25T03:46:47;13.60;99.90
24802;DHT22;12898;50.520;12.152;2022-07-25T03:49:13;13.60;99.90
24802;DHT22;12898;50.520;12.152;2022-07-25T03:51:39;13.70;99.90
24802;DHT22;12898;50.520;12.152;2022-07-25T03:54:05;13.70;99.90
24802;DHT22;12898;50.520;12.152;2022-07-25T03:56:35;13.70;99.90
24802;DHT22;12898;50.520;12.152;2022-07-25T03:59:07;13.70;99.90
24802;DHT22;12898;50.520;12.152;2022-07-25T04:01:34;13.70;99.90
24802;DHT22;12898;50.520;12.152;2022-07-25T04:04:00;13.80;99.90
24802;DHT22;12898;50.520;12.152;2022-07-25T04:06:26;13.80;99.90
24802;DHT22;12898;50.520;12.152;2022-07-25T04:08:53;13.80;99.90
24802;DHT22;12898;50.520;12.152;2022-07-25T04:11:19;13.90;99.90
24802;DHT22;12898;50.520;12.152;2022-07-25T04:13:45;13.90;99.90
24802;DHT22;12898;50.520;12.152;2022-07-25T04:16:11;14.00;99.90
24802;DHT22;12898;50.520;12.152;2022-07-25T04:18:37;14.00;99.90
24802;DHT22;12898;50.520;12.152;2022-07-25T04:21:04;14.10;99.90
24802;DHT22;12898;50.520;12.152;2022-07-25T04:23:30;14.10;99.90
24802;DHT22;12898;50.520;12.152;2022-07-25T04:25:57;14.20;99.90
24802;DHT22;12898;50.520;12.152;2022-07-25T04:28:23;14.30;99.90
24802;DHT22;12898;50.520;12.152;2022-07-25T04:30:49;14.50;99.90
24802;DHT22;12898;50.520;12.152;2022-07-25T04:33:15;14.70;99.90
24802;DHT22;12898;50.520;12.152;2022-07-25T04:35:41;14.80;99.90
24802;DHT22;12898;50.520;12.152;2022-07-25T04:38:07;15.00;99.90
24802;DHT22;12898;50.520;12.152;2022-07-25T04:40:33;15.30;99.90
24802;DHT22;12898;50.520;12.152;2022-07-25T04:42:59;15.50;99.90
24802;DHT22;12898;50.520;12.152;2022-07-25T04:45:25;15.80;99.90
24802;DHT22;12898;50.520;12.152;2022-07-25T04:47:52;16.20;99.90
24802;DHT22;12898;50.520;12.152;2022-07-25T04:50:18;16.50;99.90
24802;DHT22;12898;50.520;12.152;2022-07-25T04:52:44;16.90;99.90
24802;DHT22;12898;50.520;12.152;2022-07-25T04:55:10;17.20;99.90
24802;DHT22;12898;50.520;12.152;2022-07-25T04:57:36;17.40;99.90
24802;DHT22;12898;50.520;12.152;2022-07-25T05:00:07;17.60;99.90
24802;DHT22;12898;50.520;12.152;2022-07-25T05:02:34;17.90;99.90
24802;DHT22;12898;50.520;12.152;2022-07-25T05:05:00;18.10;99.90
24802;DHT22;12898;50.520;12.152;2022-07-25T05:07:26;18.30;99.90
24802;DHT22;12898;50.520;12.152;2022-07-25T05:09:53;18.50;99.90
24802;DHT22;12898;50.520;12.152;2022-07-25T05:12:19;18.60;99.90
24802;DHT22;12898;50.520;12.152;2022-07-25T05:14:44;18.70;99.90
24802;DHT22;12898;50.520;12.152;2022-07-25T05:17:11;18.80;99.90
24802;DHT22;12898;50.520;12.152;2022-07-25T05:19:36;19.00;99.90
24802;DHT22;12898;50.520;12.152;2022-07-25T05:22:03;19.10;99.90
24802;DHT22;12898;50.520;12.152;2022-07-25T05:24:34;19.30;99.90
24802;DHT22;12898;50.520;12.152;2022-07-25T05:27:01;19.40;99.90
24802;DHT22;12898;50.520;12.152;2022-07-25T05:29:28;19.50;99.90
24802;DHT22;12898;50.520;12.152;2022-07-25T05:31:54;19.70;99.90
24802;DHT22;12898;50.520;12.152;2022-07-25T05:34:20;19.80;99.90
24802;DHT22;12898;50.520;12.152;2022-07-25T05:36:46;19.90;99.90
24802;DHT22;12898;50.520;12.152;2022-07-25T05:39:11;20.10;99.90
24802;DHT22;12898;50.520;12.152;2022-07-25T05:41:37;20.20;99.90
24802;DHT22;12898;50.520;12.152;2022-07-25T05:44:03;20.40;99.90
24802;DHT22;12898;50.520;12.152;2022-07-25T05:46:32;20.40;99.90
24802;DHT22;12898;50.520;12.152;2022-07-25T05:48:58;20.60;99.90
24802;DHT22;12898;50.520;12.152;2022-07-25T05:51:23;20.70;99.90
24802;DHT22;12898;50.520;12.152;2022-07-25T05:53:49;20.80;99.90
24802;DHT22;12898;50.520;12.152;2022-07-25T05:56:15;20.90;99.90
24802;DHT22;12898;50.520;12.152;2022-07-25T05:58:40;21.00;99.90
24802;DHT22;12898;50.520;12.152;2022-07-25T06:01:07;21.10;99.90
24802;DHT22;12898;50.520;12.152;2022-07-25T06:03:36;21.20;99.90
24802;DHT22;12898;50.520;12.152;2022-07-25T06:06:02;21.40;99.90
24802;DHT22;12898;50.520;12.152;2022-07-25T06:08:28;21.50;99.90
24802;DHT22;12898;50.520;12.152;2022-07-25T06:10:58;21.60;99.90
24802;DHT22;12898;50.520;12.152;2022-07-25T06:13:25;21.80;99.00
24802;DHT22;12898;50.520;12.152;2022-07-25T06:15:51;21.90;98.70
24802;DHT22;12898;50.520;12.152;2022-07-25T06:18:17;22.00;97.80
24802;DHT22;12898;50.520;12.152;2022-07-25T06:20:42;22.10;97.30
24802;DHT22;12898;50.520;12.152;2022-07-25T06:23:08;22.30;96.60
24802;DHT22;12898;50.520;12.152;2022-07-25T06:25:34;22.40;95.60
24802;DHT22;12898;50.520;12.152;2022-07-25T06:28:00;22.50;95.20
24802;DHT22;12898;50.520;12.152;2022-07-25T06:30:26;22.60;94.30
24802;DHT22;12898;50.520;12.152;2022-07-25T06:32:52;22.80;93.90
24802;DHT22;12898;50.520;12.152;2022-07-25T06:35:18;23.00;92.40
24802;DHT22;12898;50.520;12.152;2022-07-25T06:37:44;23.10;92.20
24802;DHT22;12898;50.520;12.152;2022-07-25T06:40:10;23.20;91.60
24802;DHT22;12898;50.520;12.152;2022-07-25T06:42:44;23.40;90.20
24802;DHT22;12898;50.520;12.152;2022-07-25T06:45:11;23.50;88.40
24802;DHT22;12898;50.520;12.152;2022-07-25T06:47:39;23.60;90.00
24802;DHT22;12898;50.520;12.152;2022-07-25T06:50:08;23.70;89.40
24802;DHT22;12898;50.520;12.152;2022-07-25T06:52:34;23.90;87.30
24802;DHT22;12898;50.520;12.152;2022-07-25T06:55:02;24.00;85.90
24802;DHT22;12898;50.520;12.152;2022-07-25T06:57:28;24.20;85.20
24802;DHT22;12898;50.520;12.152;2022-07-25T06:59:54;24.20;83.70
24802;DHT22;12898;50.520;12.152;2022-07-25T07:02:20;24.40;82.40
24802;DHT22;12898;50.520;12.152;2022-07-25T07:04:46;24.50;81.30
24802;DHT22;12898;50.520;12.152;2022-07-25T07:07:12;24.60;80.00
24802;DHT22;12898;50.520;12.152;2022-07-25T07:09:38;24.70;79.40
24802;DHT22;12898;50.520;12.152;2022-07-25T07:12:03;24.80;78.10
24802;DHT22;12898;50.520;12.152;2022-07-25T07:14:29;25.00;79.00
24802;DHT22;12898;50.520;12.152;2022-07-25T07:16:55;25.20;76.40
24802;DHT22;12898;50.520;12.152;2022-07-25T07:19:22;25.40;75.20
24802;DHT22;12898;50.520;12.152;2022-07-25T07:21:49;25.60;74.20
24802;DHT22;12898;50.520;12.152;2022-07-25T07:24:16;25.80;73.10
24802;DHT22;12898;50.520;12.152;2022-07-25T07:26:42;26.00;70.40
24802;DHT22;12898;50.520;12.152;2022-07-25T07:29:08;26.20;70.50
24802;DHT22;12898;50.520;12.152;2022-07-25T07:31:34;26.40;70.00
24802;DHT22;12898;50.520;12.152;2022-07-25T07:34:00;26.60;67.40
24802;DHT22;12898;50.520;12.152;2022-07-25T07:36:26;26.80;67.70
24802;DHT22;12898;50.520;12.152;2022-07-25T07:38:51;27.20;66.80
24802;DHT22;12898;50.520;12.152;2022-07-25T07:41:17;27.40;64.10
24802;DHT22;12898;50.520;12.152;2022-07-25T07:43:44;27.60;62.80
24802;DHT22;12898;50.520;12.152;2022-07-25T07:46:10;27.90;62.20
24802;DHT22;12898;50.520;12.152;2022-07-25T07:48:37;28.10;60.00
24802;DHT22;12898;50.520;12.152;2022-07-25T07:51:03;28.40;60.30
24802;DHT22;12898;50.520;12.152;2022-07-25T07:53:30;28.60;59.10
24802;DHT22;12898;50.520;12.152;2022-07-25T07:56:15;28.70;56.60
24802;DHT22;12898;50.520;12.152;2022-07-25T07:58:43;28.90;56.50
24802;DHT22;12898;50.520;12.152;2022-07-25T08:01:09;29.00;55.60
24802;DHT22;12898;50.520;12.152;2022-07-25T08:03:35;29.20;55.10
24802;DHT22;12898;50.520;12.152;2022-07-25T08:06:02;29.40;54.80
24802;DHT22;12898;50.520;12.152;2022-07-25T08:08:28;29.50;52.10
24802;DHT22;12898;50.520;12.152;2022-07-25T08:10:54;29.60;52.50
24802;DHT22;12898;50.520;12.152;2022-07-25T08:13:25;29.60;51.10
24802;DHT22;12898;50.520;12.152;2022-07-25T08:15:54;29.80;51.10
24802;DHT22;12898;50.520;12.152;2022-07-25T08:18:22;29.90;50.90
24802;DHT22;12898;50.520;12.152;2022-07-25T08:20:49;30.00;50.30
24802;DHT22;12898;50.520;12.152;2022-07-25T08:23:16;30.20;48.90
24802;DHT22;12898;50.520;12.152;2022-07-25T08:25:42;30.30;50.10
24802;DHT22;12898;50.520;12.152;2022-07-25T08:28:08;30.70;48.90
24802;DHT22;12898;50.520;12.152;2022-07-25T08:30:35;31.00;47.80
24802;DHT22;12898;50.520;12.152;2022-07-25T08:33:05;31.00;47.30
24802;DHT22;12898;50.520;12.152;2022-07-25T08:35:33;31.30;46.60
24802;DHT22;12898;50.520;12.152;2022-07-25T08:38:01;31.40;45.90
24802;DHT22;12898;50.520;12.152;2022-07-25T08:40:29;31.50;45.60
24802;DHT22;12898;50.520;12.152;2022-07-25T08:42:55;31.60;45.00
24802;DHT22;12898;50.520;12.152;2022-07-25T08:45:24;31.60;44.50
24802;DHT22;12898;50.520;12.152;2022-07-25T08:47:51;31.80;44.00
24802;DHT22;12898;50.520;12.152;2022-07-25T08:50:21;31.90;42.80
24802;DHT22;12898;50.520;12.152;2022-07-25T08:52:49;31.80;43.00
24802;DHT22;12898;50.520;12.152;2022-07-25T08:55:19;31.80;42.60
24802;DHT22;12898;50.520;12.152;2022-07-25T08:57:48;32.00;42.20
24802;DHT22;12898;50.520;12.152;2022-07-25T09:00:18;32.10;42.00
24802;DHT22;12898;50.520;12.152;2022-07-25T09:02:56;32.30;41.60
24802;DHT22;12898;50.520;12.152;2022-07-25T09:05:24;32.30;41.60
24802;DHT22;12898;50.520;12.152;2022-07-25T09:07:51;32.30;41.50
24802;DHT22;12898;50.520;12.152;2022-07-25T09:13:02;32.40;40.90
24802;DHT22;12898;50.520;12.152;2022-07-25T09:15:35;32.50;39.80
24802;DHT22;12898;50.520;12.152;2022-07-25T09:18:07;32.30;39.90
24802;DHT22;12898;50.520;12.152;2022-07-25T09:20:53;32.30;41.10
24802;DHT22;12898;50.520;12.152;2022-07-25T09:23:37;32.60;41.40
24802;DHT22;12898;50.520;12.152;2022-07-25T09:26:13;32.90;40.90
24802;DHT22;12898;50.520;12.152;2022-07-25T09:28:49;33.20;40.60
24802;DHT22;12898;50.520;12.152;2022-07-25T09:31:18;33.50;39.90
24802;DHT22;12898;50.520;12.152;2022-07-25T09:33:53;33.40;39.10
24802;DHT22;12898;50.520;12.152;2022-07-25T09:36:24;33.60;38.80
24802;DHT22;12898;50.520;12.152;2022-07-25T09:38:58;33.40;39.50
24802;DHT22;12898;50.520;12.152;2022-07-25T09:41:35;33.70;39.20
24802;DHT22;12898;50.520;12.152;2022-07-25T09:44:31;34.00;38.50
24802;DHT22;12898;50.520;12.152;2022-07-25T09:46:57;34.00;38.50
24802;DHT22;12898;50.520;12.152;2022-07-25T09:49:42;34.30;38.90
24802;DHT22;12898;50.520;12.152;2022-07-25T09:52:10;34.40;37.60
24802;DHT22;12898;50.520;12.152;2022-07-25T09:54:38;34.70;37.80
24802;DHT22;12898;50.520;12.152;2022-07-25T09:57:04;34.80;37.50
24802;DHT22;12898;50.520;12.152;2022-07-25T09:59:32;34.80;37.20
24802;DHT22;12898;50.520;12.152;2022-07-25T10:07:42;35.00;36.00
24802;DHT22;12898;50.520;12.152;2022-07-25T10:10:27;34.60;37.00
24802;DHT22;12898;50.520;12.152;2022-07-25T10:15:26;35.00;36.50
24802;DHT22;12898;50.520;12.152;2022-07-25T10:18:02;35.30;36.20
24802;DHT22;12898;50.520;12.152;2022-07-25T10:20:28;35.40;35.70
24802;DHT22;12898;50.520;12.152;2022-07-25T10:22:54;35.50;35.80
24802;DHT22;12898;50.520;12.152;2022-07-25T10:25:20;35.70;35.50
24802;DHT22;12898;50.520;12.152;2022-07-25T10:27:51;35.80;35.50
24802;DHT22;12898;50.520;12.152;2022-07-25T10:30:27;35.90;34.20
24802;DHT22;12898;50.520;12.152;2022-07-25T10:33:00;35.80;34.60
24802;DHT22;12898;50.520;12.152;2022-07-25T10:35:29;35.80;34.80
24802;DHT22;12898;50.520;12.152;2022-07-25T10:37:56;35.80;34.10
24802;DHT22;12898;50.520;12.152;2022-07-25T10:40:28;35.70;34.00
24802;DHT22;12898;50.520;12.152;2022-07-25T10:45:43;35.50;33.90
24802;DHT22;12898;50.520;12.152;2022-07-25T10:48:28;35.60;33.80
24802;DHT22;12898;50.520;12.152;2022-07-25T10:51:04;35.80;34.20
24802;DHT22;12898;50.520;12.152;2022-07-25T11:03:51;36.20;32.90
24802;DHT22;12898;50.520;12.152;2022-07-25T11:08:54;36.60;33.60
24802;DHT22;12898;50.520;12.152;2022-07-25T11:11:32;36.90;32.80
24802;DHT22;12898;50.520;12.152;2022-07-25T11:13:59;37.20;31.70
24802;DHT22;12898;50.520;12.152;2022-07-25T11:16:26;37.10;32.00
24802;DHT22;12898;50.520;12.152;2022-07-25T11:18:52;37.10;31.80
24802;DHT22;12898;50.520;12.152;2022-07-25T11:21:21;37.10;32.60
24802;DHT22;12898;50.520;12.152;2022-07-25T11:23:53;36.80;32.10
24802;DHT22;12898;50.520;12.152;2022-07-25T11:26:19;37.00;31.50
24802;DHT22;12898;50.520;12.152;2022-07-25T11:28:48;37.20;32.10
24802;DHT22;12898;50.520;12.152;2022-07-25T11:31:16;37.30;31.30
24802;DHT22;12898;50.520;12.152;2022-07-25T11:33:45;37.00;31.40
24802;DHT22;12898;50.520;12.152;2022-07-25T11:36:12;36.90;31.70
24802;DHT22;12898;50.520;12.152;2022-07-25T11:38:39;36.70;31.10
24802;DHT22;12898;50.520;12.152;2022-07-25T11:41:06;37.10;32.00
24802;DHT22;12898;50.520;12.152;2022-07-25T11:43:32;37.10;30.60
24802;DHT22;12898;50.520;12.152;2022-07-25T11:46:04;37.20;31.60
24802;DHT22;12898;50.520;12.152;2022-07-25T11:48:39;37.40;31.50
24802;DHT22;12898;50.520;12.152;2022-07-25T11:51:16;37.30;30.80
24802;DHT22;12898;50.520;12.152;2022-07-25T11:53:49;37.10;30.60
24802;DHT22;12898;50.520;12.152;2022-07-25T11:56:22;37.40;31.50
24802;DHT22;12898;50.520;12.152;2022-07-25T11:58:56;37.60;31.10
24802;DHT22;12898;50.520;12.152;2022-07-25T12:01:24;37.70;30.80
24802;DHT22;12898;50.520;12.152;2022-07-25T12:03:50;37.90;30.60
24802;DHT22;12898;50.520;12.152;2022-07-25T12:06:16;37.90;30.80
24802;DHT22;12898;50.520;12.152;2022-07-25T12:08:42;38.00;30.50
24802;DHT22;12898;50.520;12.152;2022-07-25T12:11:21;38.10;30.00
24802;DHT22;12898;50.520;12.152;2022-07-25T12:13:48;38.00;30.20
24802;DHT22;12898;50.520;12.152;2022-07-25T12:16:15;37.40;29.60
24802;DHT22;12898;50.520;12.152;2022-07-25T12:18:41;37.60;29.70
24802;DHT22;12898;50.520;12.152;2022-07-25T12:21:07;37.60;29.80
24802;DHT22;12898;50.520;12.152;2022-07-25T12:23:34;37.60;29.70
24802;DHT22;12898;50.520;12.152;2022-07-25T12:26:00;38.00;29.80
24802;DHT22;12898;50.520;12.152;2022-07-25T12:28:28;38.30;29.10
24802;DHT22;12898;50.520;12.152;2022-07-25T12:30:54;38.40;29.30
24802;DHT22;12898;50.520;12.152;2022-07-25T12:33:20;38.50;29.40
24802;DHT22;12898;50.520;12.152;2022-07-25T12:35:45;38.00;29.30
24802;DHT22;12898;50.520;12.152;2022-07-25T12:38:11;37.70;29.50
24802;DHT22;12898;50.520;12.152;2022-07-25T12:40:38;37.80;29.90
24802;DHT22;12898;50.520;12.152;2022-07-25T12:43:04;38.10;29.70
24802;DHT22;12898;50.520;12.152;2022-07-25T12:45:30;38.10;29.20
24802;DHT22;12898;50.520;12.152;2022-07-25T12:47:56;38.50;28.90
24802;DHT22;12898;50.520;12.152;2022-07-25T12:50:22;38.80;28.00
24802;DHT22;12898;50.520;12.152;2022-07-25T12:52:50;38.90;27.50
24802;DHT22;12898;50.520;12.152;2022-07-25T12:55:17;38.50;27.90
24802;DHT22;12898;50.520;12.152;2022-07-25T12:57:44;38.00;28.10
24802;DHT22;12898;50.520;12.152;2022-07-25T13:00:13;37.50;28.10
24802;DHT22;12898;50.520;12.152;2022-07-25T13:02:40;37.30;29.10
24802;DHT22;12898;50.520;12.152;2022-07-25T13:05:06;37.50;29.00
24802;DHT22;12898;50.520;12.152;2022-07-25T13:07:33;37.60;28.70
24802;DHT22;12898;50.520;12.152;2022-07-25T13:09:59;37.50;28.70
24802;DHT22;12898;50.520;12.152;2022-07-25T13:12:26;37.70;28.00
24802;DHT22;12898;50.520;12.152;2022-07-25T13:14:51;37.80;28.80
24802;DHT22;12898;50.520;12.152;2022-07-25T13:17:17;38.00;28.20
24802;DHT22;12898;50.520;12.152;2022-07-25T13:19:43;38.50;28.10
24802;DHT22;12898;50.520;12.152;2022-07-25T13:22:09;38.60;27.50
24802;DHT22;12898;50.520;12.152;2022-07-25T13:24:35;38.10;27.30
24802;DHT22;12898;50.520;12.152;2022-07-25T13:27:05;37.80;27.50
24802;DHT22;12898;50.520;12.152;2022-07-25T13:29:31;37.60;28.10
24802;DHT22;12898;50.520;12.152;2022-07-25T13:31:57;37.50;28.20
24802;DHT22;12898;50.520;12.152;2022-07-25T13:34:22;37.70;27.60
24802;DHT22;12898;50.520;12.152;2022-07-25T13:36:48;38.10;27.90
24802;DHT22;12898;50.520;12.152;2022-07-25T13:39:14;38.30;28.10
24802;DHT22;12898;50.520;12.152;2022-07-25T13:41:40;38.30;28.50
24802;DHT22;12898;50.520;12.152;2022-07-25T13:44:06;38.30;28.20
24802;DHT22;12898;50.520;12.152;2022-07-25T13:46:32;38.50;28.40
24802;DHT22;12898;50.520;12.152;2022-07-25T13:48:58;38.90;28.50
24802;DHT22;12898;50.520;12.152;2022-07-25T13:51:24;39.00;27.80
24802;DHT22;12898;50.520;12.152;2022-07-25T13:53:50;39.10;27.80
24802;DHT22;12898;50.520;12.152;2022-07-25T13:56:16;39.30;27.70
24802;DHT22;12898;50.520;12.152;2022-07-25T13:58:42;39.10;28.10
24802;DHT22;12898;50.520;12.152;2022-07-25T14:01:08;38.90;28.30
24802;DHT22;12898;50.520;12.152;2022-07-25T14:03:34;39.20;27.90
24802;DHT22;12898;50.520;12.152;2022-07-25T14:06:02;39.40;28.10
24802;DHT22;12898;50.520;12.152;2022-07-25T14:08:28;39.80;27.50
24802;DHT22;12898;50.520;12.152;2022-07-25T14:10:54;39.10;27.30
24802;DHT22;12898;50.520;12.152;2022-07-25T14:13:19;38.80;28.10
24802;DHT22;12898;50.520;12.152;2022-07-25T14:15:45;38.70;27.90
24802;DHT22;12898;50.520;12.152;2022-07-25T14:18:11;38.20;28.00
24802;DHT22;12898;50.520;12.152;2022-07-25T14:20:37;37.60;28.80
24802;DHT22;12898;50.520;12.152;2022-07-25T14:23:03;37.40;29.00
24802;DHT22;12898;50.520;12.152;2022-07-25T14:25:28;36.90;29.30
24802;DHT22;12898;50.520;12.152;2022-07-25T14:27:54;36.40;30.40
24802;DHT22;12898;50.520;12.152;2022-07-25T14:30:20;36.30;30.90
24802;DHT22;12898;50.520;12.152;2022-07-25T14:32:45;36.20;30.40
24802;DHT22;12898;50.520;12.152;2022-07-25T14:35:11;36.30;31.30
24802;DHT22;12898;50.520;12.152;2022-07-25T14:37:37;36.50;30.50
24802;DHT22;12898;50.520;12.152;2022-07-25T14:40:04;36.60;30.40
24802;DHT22;12898;50.520;12.152;2022-07-25T14:42:30;36.40;29.80
24802;DHT22;12898;50.520;12.152;2022-07-25T14:44:56;36.10;30.10
24802;DHT22;12898;50.520;12.152;2022-07-25T14:47:22;35.70;30.00
24802;DHT22;12898;50.520;12.152;2022-07-25T14:49:48;35.50;31.20
24802;DHT22;12898;50.520;12.152;2022-07-25T14:52:14;35.30;31.40
24802;DHT22;12898;50.520;12.152;2022-07-25T14:54:46;35.40;31.30
24802;DHT22;12898;50.520;12.152;2022-07-25T14:57:12;35.70;31.40
24802;DHT22;12898;50.520;12.152;2022-07-25T14:59:37;35.70;30.90
24802;DHT22;12898;50.520;12.152;2022-07-25T15:02:03;35.80;31.10
24802;DHT22;12898;50.520;12.152;2022-07-25T15:04:29;35.70;30.80
24802;DHT22;12898;50.520;12.152;2022-07-25T15:06:54;35.60;31.40
24802;DHT22;12898;50.520;12.152;2022-07-25T15:09:20;35.50;31.70
24802;DHT22;12898;50.520;12.152;2022-07-25T15:11:47;35.40;32.20
24802;DHT22;12898;50.520;12.152;2022-07-25T15:14:13;35.20;31.60
24802;DHT22;12898;50.520;12.152;2022-07-25T15:16:38;35.10;32.40
24802;DHT22;12898;50.520;12.152;2022-07-25T15:19:04;35.20;31.80
24802;DHT22;12898;50.520;12.152;2022-07-25T15:21:32;34.90;32.40
24802;DHT22;12898;50.520;12.152;2022-07-25T15:23:58;34.80;32.50
24802;DHT22;12898;50.520;12.152;2022-07-25T15:26:24;34.50;33.60
24802;DHT22;12898;50.520;12.152;2022-07-25T15:28:50;34.30;33.70
24802;DHT22;12898;50.520;12.152;2022-07-25T15:31:16;34.30;34.00
24802;DHT22;12898;50.520;12.152;2022-07-25T15:33:42;34.30;34.30
24802;DHT22;12898;50.520;12.152;2022-07-25T15:36:08;34.30;34.50
24802;DHT22;12898;50.520;12.152;2022-07-25T15:38:34;34.20;34.50
24802;DHT22;12898;50.520;12.152;2022-07-25T15:40:59;34.10;34.60